createdAt,value
2022-10-25T00:07:51.026Z,10.36
2022-10-25T00:17:51.049Z,10.36
2022-10-25T00:27:51.390Z,10.54
2022-10-25T00:37:51.412Z,10.71
2022-10-25T00:47:51.725Z,11.06
2022-10-25T00:57:51.746Z,10.41
2022-10-25T01:07:52.092Z,10.58
2022-10-25T01:17:52.114Z,10.58
2022-10-25T01:27:52.521Z,10.58
2022-10-25T01:37:52.622Z,10.41
2022-10-25T01:47:52.685Z,10.58
2022-10-25T01:57:53.001Z,9.75
2022-10-25T02:07:53.130Z,10.07
2022-10-25T02:17:53.189Z,10.07
2022-10-25T02:27:53.522Z,10.23
2022-10-25T02:37:53.536Z,10.23
2022-10-25T02:47:53.825Z,10.23
2022-10-25T02:57:53.875Z,10.07
2022-10-25T03:07:54.181Z,10.07
2022-10-25T03:17:54.212Z,10.07
2022-10-25T03:27:54.522Z,10.07
2022-10-25T03:37:54.538Z,10.74
2022-10-25T03:47:54.878Z,10.58
2022-10-25T03:57:54.897Z,10.24
2022-10-25T04:07:55.222Z,10.74
2022-10-25T04:17:55.256Z,10.74
2022-10-25T04:27:55.577Z,11.06
2022-10-25T04:37:55.603Z,10.24
2022-10-25T04:47:55.922Z,10.41
2022-10-25T04:57:55.933Z,9.91
2022-10-25T05:07:56.271Z,10.23
2022-10-25T05:17:56.319Z,10.39
2022-10-25T05:27:56.627Z,10.39
2022-10-25T05:37:56.647Z,10.39
2022-10-25T05:47:56.976Z,10.39
2022-10-25T05:57:57.015Z,10.39
2022-10-25T06:07:57.245Z,10.23
2022-10-25T06:17:57.477Z,10.07
2022-10-25T06:27:57.780Z,10.07
2022-10-25T06:37:57.799Z,10.07
2022-10-25T06:47:58.224Z,9.75
2022-10-25T06:57:58.243Z,10.58
2022-10-25T07:07:58.590Z,10.41
2022-10-25T07:17:58.645Z,10.07
2022-10-25T07:27:58.923Z,9.90
2022-10-25T07:37:58.968Z,10.71
2022-10-25T07:47:59.283Z,10.54
2022-10-25T07:57:59.297Z,10.18
2022-10-25T08:07:59.623Z,10.18
2022-10-25T08:17:59.661Z,10.97
2022-10-25T08:27:59.981Z,10.79
2022-10-25T08:38:00.001Z,10.41
2022-10-25T08:48:00.334Z,11.19
2022-10-25T08:58:00.390Z,10.80
2022-10-25T09:08:00.680Z,10.60
2022-10-25T09:18:00.709Z,11.16
2022-10-25T09:28:01.026Z,11.57
2022-10-25T09:38:01.062Z,11.37
2022-10-25T09:48:01.381Z,11.91
2022-10-25T09:58:01.422Z,11.27
2022-10-25T10:08:01.827Z,11.70
2022-10-25T10:18:01.848Z,11.27
2022-10-25T10:28:02.178Z,11.55
2022-10-25T10:38:02.218Z,11.05
2022-10-25T10:48:02.549Z,11.32
2022-10-25T10:58:02.568Z,11.08
2022-10-25T11:08:02.876Z,10.85
2022-10-25T11:18:02.889Z,11.55
2022-10-25T11:28:03.229Z,11.74
2022-10-25T11:38:03.289Z,11.48
2022-10-25T11:48:03.573Z,11.48
2022-10-25T11:58:05.734Z,12.42
2022-10-25T12:08:03.815Z,12.94
2022-10-25T12:18:04.101Z,12.94
2022-10-25T12:28:04.128Z,13.35
2022-10-25T12:38:04.504Z,13.35
2022-10-25T12:48:04.546Z,12.42
2022-10-25T12:58:04.825Z,13.35
2022-10-25T13:08:04.846Z,13.35
2022-10-25T13:18:05.161Z,13.09
2022-10-25T13:28:05.195Z,13.35
2022-10-25T13:38:05.512Z,13.88
2022-10-25T13:48:05.539Z,13.88
2022-10-25T13:58:05.849Z,13.19
2022-10-25T14:08:05.893Z,13.88
2022-10-25T14:18:06.213Z,12.49
2022-10-25T14:28:06.243Z,12.98
2022-10-25T14:38:06.553Z,12.73
2022-10-25T14:48:06.605Z,12.96
2022-10-25T14:58:06.903Z,13.18
2022-10-25T15:08:06.924Z,13.40
2022-10-25T15:18:07.270Z,12.66
2022-10-25T15:28:07.286Z,11.91
2022-10-25T15:38:07.619Z,11.91
2022-10-25T15:48:07.765Z,12.12
2022-10-25T15:58:09.901Z,12.12
2022-10-25T16:08:08.044Z,12.12
2022-10-25T16:18:08.206Z,12.53
2022-10-25T16:28:08.382Z,12.16
2022-10-25T16:38:11.628Z,12.55
2022-10-25T16:48:08.646Z,12.55
2022-10-25T16:58:08.898Z,12.55
2022-10-25T17:08:09.125Z,11.95
2022-10-25T17:18:11.676Z,11.95
2022-10-25T17:28:09.566Z,11.69
2022-10-25T17:38:10.134Z,11.87
2022-10-25T17:48:10.029Z,11.52
2022-10-25T17:58:10.360Z,11.95
2022-10-25T18:08:10.472Z,11.76
2022-10-25T18:18:10.794Z,11.76
2022-10-25T18:28:10.910Z,10.97
2022-10-25T18:38:13.607Z,11.16
2022-10-25T18:48:11.300Z,10.97
2022-10-25T18:58:12.041Z,11.16
2022-10-25T19:08:11.618Z,10.60
2022-10-25T19:18:11.888Z,10.41
2022-10-25T19:28:12.050Z,10.41
2022-10-25T19:38:12.258Z,10.41
2022-10-25T19:48:12.406Z,10.79
2022-10-25T19:58:12.597Z,10.79
2022-10-25T20:08:12.495Z,10.41
2022-10-25T20:18:13.064Z,10.03
2022-10-25T20:28:13.155Z,10.41
2022-10-25T20:38:13.339Z,10.22
2022-10-25T20:48:14.342Z,10.41
2022-10-25T20:58:13.790Z,10.03
2022-10-25T21:08:13.691Z,9.83
2022-10-25T21:18:13.963Z,10.41
2022-10-25T21:28:14.030Z,10.22
2022-10-25T21:38:14.310Z,10.22
2022-10-25T21:48:14.324Z,10.03
2022-10-25T21:58:14.657Z,9.83
2022-10-25T22:08:14.680Z,9.83
2022-10-25T22:18:15.037Z,9.83
2022-10-25T22:28:15.079Z,9.83
2022-10-25T22:38:15.359Z,9.44
2022-10-25T22:48:15.476Z,9.23
2022-10-25T22:58:15.604Z,9.03
2022-10-25T23:08:15.623Z,9.23
2022-10-25T23:18:15.983Z,10.60
2022-10-25T23:28:16.013Z,10.71
2022-10-25T23:38:16.304Z,11.06
2022-10-25T23:48:16.340Z,11.06
2022-10-25T23:58:16.659Z,10.89
